createdAt,value
2018-04-30T00:01:29.532Z,27.70
2018-04-30T00:03:56.529Z,31.23
2018-04-30T00:06:22.858Z,30.63
2018-04-30T00:08:49.941Z,35.07
2018-04-30T00:11:16.213Z,29.53
2018-04-30T00:13:42.473Z,33.83
2018-04-30T00:16:08.772Z,31.87
2018-04-30T00:18:35.065Z,32.43
2018-04-30T00:21:01.367Z,31.87
2018-04-30T00:23:28.365Z,34.10
2018-04-30T00:25:55.391Z,38.07
2018-04-30T00:28:22.469Z,28.10
2018-04-30T00:30:48.806Z,33.17
2018-04-30T00:33:15.968Z,29.23
2018-04-30T00:35:42.310Z,26.73
2018-04-30T00:38:09.439Z,29.90
2018-04-30T00:40:35.795Z,31.07
2018-04-30T00:43:02.111Z,36.97
2018-04-30T00:45:28.427Z,29.43
2018-04-30T00:47:55.501Z,28.40
2018-04-30T00:50:21.747Z,33.97
2018-04-30T00:52:48.040Z,32.70
2018-04-30T00:55:14.314Z,28.80
2018-04-30T00:57:40.900Z,28.60
2018-04-30T01:00:07.129Z,31.23
2018-04-30T01:02:33.366Z,33.80
2018-04-30T01:04:59.615Z,32.93
2018-04-30T01:07:25.912Z,28.63
2018-04-30T01:09:52.194Z,28.43
2018-04-30T01:12:19.394Z,32.13
2018-04-30T01:14:46.443Z,28.70
2018-04-30T01:17:12.705Z,26.90
2018-04-30T01:19:38.963Z,25.20
2018-04-30T01:22:05.257Z,27.77
2018-04-30T01:24:31.507Z,31.33
2018-04-30T01:26:57.784Z,34.60
2018-04-30T01:29:24.840Z,26.50
2018-04-30T01:31:51.458Z,30.00
2018-04-30T01:34:17.705Z,37.63
2018-04-30T01:36:44.717Z,27.20
2018-04-30T01:39:10.975Z,27.33
2018-04-30T01:41:38.028Z,35.03
2018-04-30T01:44:05.059Z,26.37
2018-04-30T01:46:31.304Z,36.80
2018-04-30T01:48:58.328Z,29.80
2018-04-30T01:51:24.576Z,23.30
2018-04-30T01:53:51.629Z,25.93
2018-04-30T01:56:18.676Z,28.90
2018-04-30T01:58:45.669Z,25.50
2018-04-30T02:01:11.954Z,25.13
2018-04-30T02:03:38.997Z,21.07
2018-04-30T02:06:06.009Z,22.43
2018-04-30T02:08:32.295Z,15.83
2018-04-30T02:10:58.602Z,19.50
2018-04-30T02:13:25.652Z,29.70
2018-04-30T02:15:52.662Z,20.10
2018-04-30T02:18:18.925Z,19.60
2018-04-30T02:20:45.950Z,19.97
2018-04-30T02:23:12.276Z,26.23
2018-04-30T02:25:38.534Z,28.90
2018-04-30T02:28:05.617Z,27.40
2018-04-30T02:30:31.937Z,20.90
2018-04-30T02:32:58.255Z,29.07
2018-04-30T02:35:25.297Z,22.97
2018-04-30T02:37:52.366Z,22.37
2018-04-30T02:40:18.697Z,21.23
2018-04-30T02:42:45.020Z,22.90
2018-04-30T02:45:12.009Z,18.40
2018-04-30T02:47:38.271Z,16.43
2018-04-30T02:50:04.607Z,25.43
2018-04-30T02:52:31.623Z,22.70
2018-04-30T02:54:58.802Z,19.03
2018-04-30T02:57:25.102Z,19.60
2018-04-30T02:59:51.389Z,19.43
2018-04-30T03:02:17.673Z,26.13
2018-04-30T03:04:43.977Z,25.73
2018-04-30T03:07:10.251Z,25.30
2018-04-30T03:09:36.600Z,17.73
2018-04-30T03:12:02.815Z,15.97
2018-04-30T03:14:29.113Z,16.13
2018-04-30T03:16:56.317Z,22.17
2018-04-30T03:19:22.623Z,18.47
2018-04-30T03:21:48.891Z,14.67
2018-04-30T03:24:15.204Z,16.40
2018-04-30T03:26:42.223Z,18.90
2018-04-30T03:29:08.511Z,18.93
2018-04-30T03:31:34.815Z,23.23
2018-04-30T03:34:01.152Z,22.43
2018-04-30T03:36:27.455Z,20.40
2018-04-30T03:38:53.747Z,24.30
2018-04-30T03:41:20.007Z,20.93
2018-04-30T03:43:46.324Z,21.93
2018-04-30T03:46:13.458Z,20.97
2018-04-30T03:48:39.758Z,18.33
2018-04-30T03:51:06.093Z,24.40
2018-04-30T03:53:32.381Z,18.87
2018-04-30T03:55:58.657Z,24.17
2018-04-30T03:58:24.947Z,24.40
2018-04-30T04:01:10.782Z,19.67
2018-04-30T04:03:55.734Z,13.70
2018-04-30T04:09:32.098Z,15.20
2018-04-30T04:11:59.131Z,13.40
2018-04-30T04:14:25.406Z,19.20
2018-04-30T04:16:51.938Z,21.73
2018-04-30T04:19:18.226Z,28.13
2018-04-30T04:21:44.570Z,18.00
2018-04-30T04:24:17.770Z,21.70
2018-04-30T04:26:44.759Z,15.47
2018-04-30T04:29:11.031Z,24.50
2018-04-30T04:31:37.311Z,19.90
2018-04-30T04:34:03.616Z,18.50
2018-04-30T04:36:30.612Z,20.03
2018-04-30T04:38:56.880Z,20.50
2018-04-30T04:41:23.879Z,14.20
2018-04-30T04:43:50.170Z,18.07
2018-04-30T04:46:17.205Z,13.80
2018-04-30T04:48:44.207Z,16.23
2018-04-30T04:51:10.482Z,19.00
2018-04-30T04:53:37.484Z,14.57
2018-04-30T04:56:03.817Z,27.20
2018-04-30T04:58:30.053Z,24.50
2018-04-30T05:00:56.376Z,17.57
2018-04-30T05:03:22.673Z,17.43
2018-04-30T05:05:48.947Z,20.10
2018-04-30T05:08:15.207Z,19.20
2018-04-30T05:10:41.473Z,23.50
2018-04-30T05:13:07.722Z,15.93
2018-04-30T05:15:33.977Z,19.40
2018-04-30T05:18:00.248Z,22.20
2018-04-30T05:20:26.556Z,16.33
2018-04-30T05:22:53.588Z,14.23
2018-04-30T05:25:19.875Z,24.23
2018-04-30T05:27:46.172Z,22.23
2018-04-30T05:30:13.159Z,29.00
2018-04-30T05:32:39.410Z,16.63
2018-04-30T05:35:06.704Z,20.03
2018-04-30T05:37:33.733Z,17.07
2018-04-30T05:40:00.032Z,24.23
2018-04-30T05:42:26.303Z,16.60
2018-04-30T05:44:53.349Z,22.20
2018-04-30T05:47:20.345Z,20.53
2018-04-30T05:49:46.631Z,21.10
2018-04-30T05:52:13.660Z,21.80
2018-04-30T05:54:39.942Z,18.67
2018-04-30T05:57:06.216Z,21.90
2018-04-30T05:59:32.440Z,13.73
2018-04-30T06:01:58.729Z,23.33
2018-04-30T06:04:25.011Z,26.90
2018-04-30T06:06:52.075Z,24.67
2018-04-30T06:09:18.328Z,14.73
2018-04-30T06:11:44.662Z,19.93
2018-04-30T06:14:10.993Z,21.23
2018-04-30T06:16:37.246Z,22.17
2018-04-30T06:19:03.538Z,17.67
2018-04-30T06:21:30.577Z,18.80
2018-04-30T06:23:57.605Z,18.43
2018-04-30T06:26:23.871Z,16.47
2018-04-30T06:28:50.137Z,15.50
2018-04-30T06:31:16.394Z,20.00
2018-04-30T06:33:42.940Z,18.83
2018-04-30T06:36:09.246Z,23.90
2018-04-30T06:38:35.530Z,16.60
2018-04-30T06:41:02.302Z,17.90
2018-04-30T06:43:28.576Z,19.77
2018-04-30T06:45:55.649Z,20.20
2018-04-30T06:48:21.913Z,22.83
2018-04-30T06:50:48.209Z,22.63
2018-04-30T06:53:14.490Z,18.30
2018-04-30T06:55:40.790Z,16.10
2018-04-30T06:58:07.121Z,22.23
2018-04-30T07:00:33.418Z,17.77
2018-04-30T07:03:00.451Z,14.63
2018-04-30T07:05:26.747Z,18.97
2018-04-30T07:07:52.983Z,16.93
2018-04-30T07:10:19.290Z,20.93
2018-04-30T07:12:45.568Z,18.83
2018-04-30T07:15:11.853Z,13.70
2018-04-30T07:17:38.080Z,19.93
2018-04-30T07:20:04.430Z,18.40
2018-04-30T07:22:30.713Z,26.93
2018-04-30T07:24:57.723Z,17.10
2018-04-30T07:27:24.026Z,19.53
2018-04-30T07:29:50.330Z,24.23
2018-04-30T07:32:16.694Z,14.70
2018-04-30T07:34:42.991Z,24.13
2018-04-30T07:37:09.285Z,19.73
2018-04-30T07:39:35.584Z,13.03
2018-04-30T07:42:01.893Z,21.90
2018-04-30T07:44:28.174Z,12.80
2018-04-30T07:46:54.498Z,11.77
2018-04-30T07:49:20.790Z,9.73
2018-04-30T07:51:47.084Z,22.30
2018-04-30T07:54:14.111Z,10.87
2018-04-30T07:56:40.403Z,8.80
2018-04-30T07:59:06.697Z,14.27
2018-04-30T08:01:33.710Z,9.80
2018-04-30T08:03:59.996Z,11.37
2018-04-30T08:06:26.272Z,15.67
2018-04-30T08:08:52.590Z,18.67
2018-04-30T08:11:18.902Z,14.57
2018-04-30T08:13:45.205Z,14.23
2018-04-30T08:16:12.289Z,19.93
2018-04-30T08:18:38.583Z,16.07
2018-04-30T08:21:05.650Z,25.83
2018-04-30T08:23:31.914Z,13.60
2018-04-30T08:25:58.207Z,28.57
2018-04-30T08:28:24.499Z,11.13
2018-04-30T08:30:50.772Z,18.77
2018-04-30T08:33:17.071Z,17.10
2018-04-30T08:35:44.342Z,9.30
2018-04-30T08:38:10.765Z,9.20
2018-04-30T08:40:37.040Z,5.13
2018-04-30T08:43:03.345Z,7.07
2018-04-30T08:45:29.621Z,10.27
2018-04-30T08:47:55.901Z,8.30
2018-04-30T08:50:22.161Z,12.70
2018-04-30T08:52:48.471Z,6.87
2018-04-30T08:55:14.752Z,9.93
2018-04-30T08:57:41.062Z,16.37
2018-04-30T09:00:07.368Z,9.97
2018-04-30T09:02:33.682Z,9.00
2018-04-30T09:05:00.021Z,4.73
2018-04-30T09:07:26.339Z,4.80
2018-04-30T09:09:52.599Z,2.60
2018-04-30T09:12:18.899Z,1.70
2018-04-30T09:14:45.992Z,4.93
2018-04-30T09:17:12.355Z,8.60
2018-04-30T09:19:38.709Z,4.70
2018-04-30T09:22:05.122Z,7.10
2018-04-30T09:24:32.119Z,3.20
2018-04-30T09:26:58.443Z,6.13
2018-04-30T09:29:24.749Z,4.40
2018-04-30T09:31:51.785Z,6.37
2018-04-30T09:34:18.877Z,3.77
2018-04-30T09:36:46.136Z,8.17
2018-04-30T09:39:13.435Z,12.20
2018-04-30T09:41:39.768Z,5.80
2018-04-30T09:44:06.805Z,1.63
2018-04-30T09:46:33.074Z,23.17
2018-04-30T09:48:59.371Z,5.50
2018-04-30T09:51:25.652Z,2.20
2018-04-30T09:53:51.967Z,7.93
2018-04-30T09:56:18.311Z,2.77
2018-04-30T09:58:44.578Z,1.83
2018-04-30T10:01:10.918Z,3.33
2018-04-30T10:03:37.226Z,6.30
2018-04-30T10:06:03.542Z,0.90
2018-04-30T10:08:29.865Z,1.67
2018-04-30T10:10:56.169Z,3.23
2018-04-30T10:13:22.457Z,7.23
2018-04-30T10:15:49.464Z,6.90
2018-04-30T10:18:15.776Z,6.67
2018-04-30T10:20:42.854Z,1.30
2018-04-30T10:23:09.190Z,1.70
2018-04-30T10:25:35.544Z,7.50
2018-04-30T10:28:01.842Z,2.37
2018-04-30T10:30:28.165Z,3.33
2018-04-30T10:32:54.520Z,3.70
2018-04-30T10:35:20.842Z,6.20
2018-04-30T10:37:47.439Z,3.70
2018-04-30T10:40:13.780Z,15.67
2018-04-30T10:42:40.845Z,3.60
2018-04-30T10:45:07.156Z,1.40
2018-04-30T10:47:34.231Z,3.53
2018-04-30T10:50:00.552Z,3.97
2018-04-30T10:52:26.883Z,7.27
2018-04-30T10:54:53.230Z,2.03
2018-04-30T10:57:19.587Z,2.43
2018-04-30T10:59:46.038Z,15.83
2018-04-30T11:02:12.327Z,2.90
2018-04-30T11:04:38.627Z,5.53
2018-04-30T11:07:05.631Z,2.93
2018-04-30T11:09:32.052Z,1.20
2018-04-30T11:12:18.021Z,1.40
2018-04-30T11:14:44.361Z,1.33
2018-04-30T11:17:10.693Z,5.07
2018-04-30T11:19:37.099Z,1.33
2018-04-30T11:22:03.575Z,3.33
2018-04-30T11:24:30.114Z,5.90
2018-04-30T11:26:56.418Z,3.90
2018-04-30T11:29:29.597Z,2.07
2018-04-30T11:31:55.970Z,4.73
2018-04-30T11:34:22.302Z,2.73
2018-04-30T11:36:49.349Z,3.00
2018-04-30T11:39:15.710Z,6.93
2018-04-30T11:41:42.122Z,2.63
2018-04-30T11:44:08.504Z,4.17
2018-04-30T11:46:34.832Z,1.57
2018-04-30T11:49:01.212Z,3.90
2018-04-30T11:51:27.509Z,3.50
2018-04-30T11:53:54.035Z,1.40
2018-04-30T11:56:20.430Z,1.03
2018-04-30T11:58:46.926Z,0.90
2018-04-30T12:01:13.316Z,2.10
2018-04-30T12:03:39.851Z,0.80
2018-04-30T12:06:06.925Z,5.70
2018-04-30T12:08:33.317Z,0.90
2018-04-30T12:10:59.783Z,1.90
2018-04-30T12:13:26.155Z,1.03
2018-04-30T12:15:52.451Z,1.20
2018-04-30T12:18:18.803Z,1.80
2018-04-30T12:20:45.190Z,2.47
2018-04-30T12:23:12.264Z,0.70
2018-04-30T12:25:38.624Z,0.90
2018-04-30T12:28:05.040Z,2.77
2018-04-30T12:30:31.425Z,1.00
2018-04-30T12:32:57.828Z,5.87
2018-04-30T12:35:24.198Z,1.03
2018-04-30T12:37:51.297Z,1.43
2018-04-30T12:40:17.646Z,0.80
2018-04-30T12:42:43.971Z,5.07
2018-04-30T12:45:10.383Z,2.03
2018-04-30T12:47:36.731Z,2.30
2018-04-30T12:50:03.070Z,6.60
2018-04-30T12:52:29.364Z,1.67
2018-04-30T12:54:55.838Z,0.70
2018-04-30T12:57:22.193Z,0.60
2018-04-30T12:59:48.543Z,0.70
2018-04-30T13:02:15.775Z,3.27
2018-04-30T13:04:42.099Z,7.97
2018-04-30T13:07:08.428Z,0.80
2018-04-30T13:09:34.766Z,2.07
2018-04-30T13:12:01.109Z,1.40
2018-04-30T13:14:28.209Z,4.17
2018-04-30T13:16:54.597Z,3.97
2018-04-30T13:19:20.925Z,1.30
2018-04-30T13:21:47.337Z,1.40
2018-04-30T13:24:13.659Z,2.53
2018-04-30T13:26:39.948Z,1.47
2018-04-30T13:29:06.228Z,0.93
2018-04-30T13:31:32.516Z,3.33
2018-04-30T13:33:58.804Z,5.30
2018-04-30T13:36:26.216Z,1.53
2018-04-30T13:38:52.515Z,2.30
2018-04-30T13:41:19.532Z,2.40
2018-04-30T13:43:45.857Z,1.53
2018-04-30T13:46:12.195Z,2.33
2018-04-30T13:48:38.463Z,3.73
2018-04-30T13:51:04.808Z,1.40
2018-04-30T13:53:31.175Z,2.10
2018-04-30T13:55:57.445Z,2.13
2018-04-30T13:58:24.534Z,1.07
2018-04-30T14:00:50.822Z,2.57
2018-04-30T14:03:17.884Z,0.90
2018-04-30T14:05:44.291Z,1.37
2018-04-30T14:08:11.391Z,4.30
2018-04-30T14:10:37.717Z,0.83
2018-04-30T14:13:04.025Z,0.80
2018-04-30T14:15:30.343Z,1.37
2018-04-30T14:17:57.444Z,1.90
2018-04-30T14:20:31.670Z,0.80
2018-04-30T14:22:57.995Z,2.10
2018-04-30T14:25:24.355Z,2.00
2018-04-30T14:27:50.672Z,1.77
2018-04-30T14:30:17.018Z,2.40
2018-04-30T14:32:43.337Z,2.03
2018-04-30T14:35:09.627Z,1.20
2018-04-30T14:37:35.917Z,4.47
2018-04-30T14:40:02.276Z,1.03
2018-04-30T14:42:28.578Z,1.97
2018-04-30T14:44:54.904Z,6.20
2018-04-30T14:47:21.214Z,1.23
2018-04-30T14:49:47.488Z,4.13
2018-04-30T14:52:14.529Z,1.73
2018-04-30T14:54:41.625Z,1.13
2018-04-30T14:57:07.895Z,2.60
2018-04-30T14:59:34.184Z,1.10
2018-04-30T15:02:00.480Z,2.80
2018-04-30T15:04:26.841Z,1.93
2018-04-30T15:06:53.128Z,1.57
2018-04-30T15:09:20.151Z,1.83
2018-04-30T15:11:46.452Z,5.87
2018-04-30T15:16:45.803Z,0.80
2018-04-30T15:19:12.240Z,3.10
2018-04-30T15:21:38.573Z,2.47
2018-04-30T15:24:04.845Z,1.03
2018-04-30T15:26:31.123Z,1.00
2018-04-30T15:28:57.449Z,2.57
2018-04-30T15:31:23.762Z,4.73
2018-04-30T15:33:50.065Z,0.90
2018-04-30T15:36:17.087Z,1.30
2018-04-30T15:38:44.179Z,0.80
2018-04-30T15:41:10.587Z,0.90
2018-04-30T15:43:37.641Z,3.67
2018-04-30T15:46:03.933Z,2.50
2018-04-30T15:48:30.230Z,0.90
2018-04-30T15:50:56.574Z,1.63
2018-04-30T15:53:22.856Z,2.33
2018-04-30T15:55:49.970Z,1.03
2018-04-30T15:58:16.353Z,1.73
2018-04-30T16:00:42.789Z,0.93
2018-04-30T16:03:09.121Z,0.77
2018-04-30T16:05:35.436Z,4.93
2018-04-30T16:08:02.518Z,1.10
2018-04-30T16:10:28.794Z,1.93
2018-04-30T16:12:55.068Z,1.17
2018-04-30T16:15:21.357Z,1.10
2018-04-30T16:17:47.695Z,3.50
2018-04-30T16:20:14.849Z,1.57
2018-04-30T16:22:41.099Z,1.47
2018-04-30T16:25:07.436Z,2.07
2018-04-30T16:27:33.742Z,4.80
2018-04-30T16:30:00.808Z,2.40
2018-04-30T16:32:27.123Z,2.73
2018-04-30T16:34:54.202Z,1.30
2018-04-30T16:37:20.550Z,1.13
2018-04-30T16:39:46.877Z,1.03
2018-04-30T16:42:13.277Z,4.43
2018-04-30T16:44:39.654Z,3.90
2018-04-30T16:47:05.979Z,3.73
2018-04-30T16:49:32.319Z,1.73
2018-04-30T16:51:58.596Z,3.40
2018-04-30T16:54:25.662Z,1.30
2018-04-30T16:56:52.308Z,3.03
2018-04-30T16:59:18.776Z,5.50
2018-04-30T17:01:45.857Z,1.67
2018-04-30T17:04:12.947Z,2.30
2018-04-30T17:06:39.323Z,3.07
2018-04-30T17:09:06.623Z,3.27
2018-04-30T17:11:32.946Z,2.03
2018-04-30T17:13:59.274Z,3.37
2018-04-30T17:16:25.629Z,2.20
2018-04-30T17:18:51.914Z,3.63
2018-04-30T17:21:18.972Z,4.37
2018-04-30T17:23:45.995Z,1.60
2018-04-30T17:26:12.305Z,7.47
2018-04-30T17:28:38.585Z,6.30
2018-04-30T17:31:05.727Z,3.63
2018-04-30T17:33:32.872Z,4.47
2018-04-30T17:35:59.928Z,5.40
2018-04-30T17:38:27.042Z,8.73
2018-04-30T17:40:53.379Z,4.83
2018-04-30T17:43:19.664Z,11.90
2018-04-30T17:45:45.954Z,7.17
2018-04-30T17:48:12.301Z,6.73
2018-04-30T17:50:39.355Z,9.47
2018-04-30T17:53:06.423Z,6.67
2018-04-30T17:55:32.770Z,9.97
2018-04-30T17:57:59.050Z,8.57
2018-04-30T18:00:26.124Z,10.27
2018-04-30T18:02:52.461Z,11.07
2018-04-30T18:05:18.790Z,11.57
2018-04-30T18:07:45.117Z,10.13
2018-04-30T18:10:11.407Z,10.70
2018-04-30T18:12:37.782Z,15.80
2018-04-30T18:15:04.099Z,15.90
2018-04-30T18:17:31.129Z,11.57
2018-04-30T18:19:57.425Z,12.93
2018-04-30T18:22:23.738Z,11.40
2018-04-30T18:24:50.286Z,10.33
2018-04-30T18:27:16.625Z,13.37
2018-04-30T18:29:42.919Z,12.53
2018-04-30T18:47:13.451Z,42.20
2018-04-30T18:49:39.803Z,34.73
2018-04-30T18:52:06.112Z,28.53
2018-04-30T18:54:32.482Z,23.30
2018-04-30T18:56:58.839Z,45.17
2018-04-30T18:59:25.222Z,23.73
2018-04-30T19:01:51.619Z,17.50
2018-04-30T19:04:18.857Z,20.77
2018-04-30T19:06:45.198Z,20.03
2018-04-30T19:09:12.509Z,27.73
2018-04-30T19:11:39.002Z,24.83
2018-04-30T19:14:05.986Z,32.40
2018-04-30T19:16:32.389Z,20.23
2018-04-30T19:18:59.686Z,16.87
2018-04-30T19:21:26.872Z,15.90
2018-04-30T19:23:53.353Z,21.93
2018-04-30T19:26:19.741Z,22.73
2018-04-30T19:28:47.766Z,24.47
2018-04-30T19:31:14.218Z,20.17
2018-04-30T19:33:40.621Z,16.87
2018-04-30T19:36:07.012Z,28.23
2018-04-30T19:38:34.418Z,15.40
2018-04-30T19:41:00.746Z,26.37
2018-04-30T19:43:27.097Z,21.17
2018-04-30T19:45:53.391Z,23.63
2018-04-30T19:48:19.786Z,24.83
2018-04-30T19:50:46.150Z,20.73
2018-04-30T19:53:12.479Z,22.10
2018-04-30T19:55:38.799Z,23.30
2018-04-30T20:10:21.330Z,43.97
2018-04-30T20:12:47.659Z,43.77
2018-04-30T20:15:13.960Z,31.57
2018-04-30T20:17:46.674Z,32.77
2018-04-30T20:20:13.070Z,32.93
2018-04-30T20:22:41.385Z,25.67
2018-04-30T20:25:07.879Z,19.40
2018-04-30T20:27:34.299Z,19.20
2018-04-30T20:30:01.375Z,20.07
2018-04-30T20:32:28.415Z,28.80
2018-04-30T20:34:55.643Z,33.20
2018-04-30T20:37:22.126Z,32.27
2018-04-30T20:39:48.499Z,18.90
2018-04-30T20:42:14.765Z,18.17
2018-04-30T20:44:41.898Z,22.03
2018-04-30T20:47:09.001Z,24.00
2018-04-30T20:49:35.475Z,34.40
2018-04-30T20:52:01.889Z,33.17
2018-04-30T20:54:28.235Z,35.80
2018-04-30T20:56:54.545Z,31.50
2018-04-30T20:59:21.627Z,24.87
2018-04-30T21:01:47.956Z,28.87
2018-04-30T21:04:14.271Z,23.27
2018-04-30T21:06:40.623Z,19.27
2018-04-30T21:09:12.559Z,22.37
2018-04-30T21:11:38.911Z,26.77
2018-04-30T21:14:05.333Z,23.77
2018-04-30T21:16:31.720Z,22.80
2018-04-30T21:18:58.075Z,43.80
2018-04-30T21:21:24.535Z,27.87
2018-04-30T21:23:50.908Z,32.83
2018-04-30T21:26:17.210Z,42.43
2018-04-30T21:28:54.285Z,45.13
2018-04-30T21:31:20.613Z,31.93
2018-04-30T21:33:46.921Z,25.77
2018-04-30T21:36:13.268Z,26.20
2018-04-30T21:38:39.622Z,31.50
2018-04-30T21:41:06.652Z,33.10
2018-04-30T21:43:32.982Z,24.33
2018-04-30T21:45:59.315Z,32.27
2018-04-30T21:48:25.655Z,24.83
2018-04-30T21:50:51.983Z,29.37
2018-04-30T21:53:18.280Z,19.17
2018-04-30T21:55:44.582Z,19.23
2018-04-30T21:58:10.882Z,18.60
2018-04-30T22:00:38.022Z,18.90
2018-04-30T22:03:04.487Z,17.93
2018-04-30T22:05:30.815Z,21.17
2018-04-30T22:07:57.223Z,17.33
2018-04-30T22:10:23.520Z,20.63
2018-04-30T22:12:49.846Z,15.70
2018-04-30T22:15:16.176Z,21.63
2018-04-30T22:17:42.514Z,16.70
2018-04-30T22:20:08.840Z,11.33
2018-04-30T22:22:35.396Z,10.63
2018-04-30T22:25:01.736Z,11.80
2018-04-30T22:27:28.085Z,13.03
2018-04-30T22:29:55.184Z,16.93
2018-04-30T22:32:21.544Z,11.10
2018-04-30T22:34:47.811Z,13.07
2018-04-30T22:37:14.872Z,14.67
2018-04-30T22:39:46.042Z,11.90
2018-04-30T22:42:12.344Z,9.00
2018-04-30T22:44:38.639Z,8.87
2018-04-30T22:47:05.015Z,15.27
2018-04-30T22:49:31.415Z,13.27
2018-04-30T22:51:58.445Z,15.30
2018-04-30T22:54:25.751Z,17.80
2018-04-30T22:56:52.050Z,19.57
2018-04-30T22:59:18.381Z,17.07
2018-04-30T23:01:45.469Z,18.00
2018-04-30T23:04:11.806Z,16.23
2018-04-30T23:06:38.074Z,20.27
2018-04-30T23:09:04.498Z,15.70
2018-04-30T23:11:30.866Z,16.00
2018-04-30T23:13:57.878Z,13.00
2018-04-30T23:16:24.206Z,18.47
2018-04-30T23:18:50.508Z,12.63
2018-04-30T23:21:16.839Z,11.77
2018-04-30T23:23:43.163Z,13.03
2018-04-30T23:26:09.501Z,14.23
2018-04-30T23:28:35.836Z,16.10
2018-04-30T23:31:02.127Z,15.20
2018-04-30T23:33:29.203Z,13.70
2018-04-30T23:35:55.526Z,18.23
2018-04-30T23:38:21.832Z,16.40
2018-04-30T23:40:48.888Z,21.93
2018-04-30T23:43:15.981Z,22.93
2018-04-30T23:45:42.363Z,21.23
2018-04-30T23:48:09.389Z,20.83
2018-04-30T23:50:35.775Z,15.93
2018-04-30T23:53:02.106Z,18.23
2018-04-30T23:55:28.414Z,24.97
2018-04-30T23:57:55.488Z,23.53
